Time;durP1;ratioP1;P1;durP2;ratioP2;P2;SDS_P1;SDS_P2;PMS_P1;PMS_P2;Temp;Humidity;BMP_temperature;BMP_pressure;BME280_temperature;BME280_humidity;BME280_pressure;Samples;Min_cycle;Max_cycle;Signal;HPM_P1;HPM_P2
2021/08/31 00:00:50;;;;;;;5.72;2.97;;;;;;;;;;4950528;29;20051;-71
2021/08/31 00:03:18;;;;;;;6.35;3.28;;;;;;;;;;4949715;28;20051;-71
2021/08/31 00:05:47;;;;;;;6.70;3.15;;;;;;;;;;4930387;29;20059;-70
2021/08/31 00:08:15;;;;;;;4.75;3.20;;;;;;;;;;4931389;29;20071;-70
2021/08/31 00:10:43;;;;;;;6.10;3.20;;;;;;;;;;4931240;29;20082;-70
2021/08/31 00:13:11;;;;;;;5.57;3.25;;;;;;;;;;4931752;29;20052;-70
2021/08/31 00:15:40;;;;;;;5.60;3.13;;;;;;;;;;4931545;28;20052;-70
2021/08/31 00:18:09;;;;;;;4.18;2.63;;;;;;;;;;4931649;29;20507;-70
2021/08/31 00:20:38;;;;;;;5.80;2.95;;;;;;;;;;4922597;29;20044;-70
2021/08/31 00:23:07;;;;;;;6.30;3.13;;;;;;;;;;4931399;29;20056;-70
2021/08/31 00:25:35;;;;;;;4.07;2.88;;;;;;;;;;4931490;28;20056;-70
2021/08/31 00:28:04;;;;;;;6.05;3.28;;;;;;;;;;4932404;29;20515;-70
2021/08/31 00:30:32;;;;;;;6.18;2.80;;;;;;;;;;4933365;29;20103;-70
2021/08/31 00:33:00;;;;;;;4.25;2.47;;;;;;;;;;4932135;29;20120;-70
2021/08/31 00:35:30;;;;;;;5.00;2.58;;;;;;;;;;4931452;28;20062;-70
2021/08/31 00:37:58;;;;;;;4.78;2.67;;;;;;;;;;4931897;29;20060;-70
2021/08/31 00:40:26;;;;;;;6.05;2.80;;;;;;;;;;4934880;29;20138;-70
2021/08/31 00:42:54;;;;;;;6.30;2.78;;;;;;;;;;4934623;29;20511;-70
2021/08/31 00:45:23;;;;;;;3.83;2.65;;;;;;;;;;4935793;28;20143;-70
2021/08/31 00:47:51;;;;;;;4.40;2.72;;;;;;;;;;4935043;29;20127;-70
2021/08/31 00:50:21;;;;;;;3.90;2.70;;;;;;;;;;4936052;29;20051;-70
2021/08/31 00:52:52;;;;;;;5.63;2.88;;;;;;;;;;4935747;29;20143;-70
2021/08/31 00:55:21;;;;;;;5.78;2.72;;;;;;;;;;4935497;28;20545;-70
2021/08/31 00:57:50;;;;;;;4.60;2.95;;;;;;;;;;4928078;29;20055;-70
2021/08/31 01:00:18;;;;;;;4.50;2.80;;;;;;;;;;4924584;29;20051;-70
2021/08/31 01:02:47;;;;;;;5.07;2.58;;;;;;;;;;4968026;23;20141;-62
2021/08/31 01:05:15;;;;;;;4.47;2.40;;;;;;;;;;4979820;28;20138;-63
2021/08/31 01:07:43;;;;;;;4.53;2.20;;;;;;;;;;4987331;28;20068;-63
2021/08/31 01:10:15;;;;;;;4.75;2.85;;;;;;;;;;4992635;28;20478;-62
2021/08/31 01:12:44;;;;;;;4.47;2.38;;;;;;;;;;4986752;28;20549;-63
2021/08/31 01:15:13;;;;;;;4.18;2.85;;;;;;;;;;4992393;28;20050;-62
2021/08/31 01:17:41;;;;;;;6.38;2.67;;;;;;;;;;4987040;28;20042;-62
2021/08/31 01:20:10;;;;;;;4.93;2.45;;;;;;;;;;4992085;28;20146;-62
2021/08/31 01:22:38;;;;;;;6.25;2.42;;;;;;;;;;4991729;28;20054;-62
2021/08/31 01:25:09;;;;;;;4.20;2.78;;;;;;;;;;4985862;28;20056;-62
2021/08/31 01:27:37;;;;;;;4.88;2.47;;;;;;;;;;4991827;28;20046;-61
2021/08/31 01:30:06;;;;;;;4.47;3.05;;;;;;;;;;4992758;28;20050;-62
2021/08/31 01:32:34;;;;;;;4.38;2.70;;;;;;;;;;4990277;28;20065;-62
2021/08/31 01:35:03;;;;;;;5.88;3.25;;;;;;;;;;4991969;28;20422;-62
2021/08/31 01:37:31;;;;;;;6.55;3.30;;;;;;;;;;4991681;28;20054;-62
2021/08/31 01:39:59;;;;;;;5.38;3.00;;;;;;;;;;4991687;28;20050;-63
2021/08/31 01:42:47;;;;;;;6.55;3.42;;;;;;;;;;4991840;28;20062;-63
2021/08/31 01:45:16;;;;;;;8.13;3.13;;;;;;;;;;4990892;28;20050;-62
2021/08/31 01:47:44;;;;;;;6.97;4.03;;;;;;;;;;4990502;28;20160;-62
2021/08/31 01:50:12;;;;;;;5.72;2.90;;;;;;;;;;4991831;28;20505;-62
2021/08/31 01:52:41;;;;;;;6.22;3.20;;;;;;;;;;4992582;28;20039;-62
2021/08/31 01:55:10;;;;;;;5.00;3.08;;;;;;;;;;4991348;28;20133;-63
2021/08/31 01:57:38;;;;;;;6.32;2.85;;;;;;;;;;4979440;28;20071;-63
2021/08/31 02:00:08;;;;;;;4.80;3.00;;;;;;;;;;4989589;28;20525;-62
2021/08/31 02:02:37;;;;;;;5.30;2.50;;;;;;;;;;4990223;28;20050;-62
2021/08/31 02:05:06;;;;;;;5.97;3.15;;;;;;;;;;4991039;28;20050;-62
2021/08/31 02:07:34;;;;;;;6.32;2.72;;;;;;;;;;4990050;28;20046;-62
2021/08/31 02:10:02;;;;;;;4.95;2.95;;;;;;;;;;4990750;28;20065;-63
2021/08/31 02:12:30;;;;;;;5.28;3.05;;;;;;;;;;4990973;28;20050;-62
2021/08/31 02:14:58;;;;;;;4.90;2.97;;;;;;;;;;4991084;28;20165;-63
2021/08/31 02:17:28;;;;;;;4.70;2.38;;;;;;;;;;4990895;28;20129;-62
2021/08/31 02:19:56;;;;;;;6.03;3.28;;;;;;;;;;4992156;28;20145;-62
2021/08/31 02:22:24;;;;;;;6.78;3.28;;;;;;;;;;4991119;28;20521;-63
2021/08/31 02:24:53;;;;;;;6.30;3.50;;;;;;;;;;4991457;28;20046;-64
2021/08/31 02:27:21;;;;;;;5.22;2.75;;;;;;;;;;4990060;28;20042;-63
2021/08/31 02:29:49;;;;;;;4.82;2.72;;;;;;;;;;4991625;28;20050;-63
2021/08/31 02:32:17;;;;;;;6.03;2.85;;;;;;;;;;4991319;28;20045;-62
2021/08/31 02:34:47;;;;;;;5.90;3.22;;;;;;;;;;4990356;28;20049;-62
2021/08/31 02:37:15;;;;;;;5.20;3.22;;;;;;;;;;4991105;28;20054;-62
2021/08/31 02:39:44;;;;;;;8.15;3.35;;;;;;;;;;4991916;28;20132;-63
2021/08/31 02:42:12;;;;;;;6.95;3.50;;;;;;;;;;4990877;28;20418;-63
2021/08/31 02:44:40;;;;;;;5.82;3.35;;;;;;;;;;4991491;28;20114;-63
2021/08/31 02:47:08;;;;;;;5.15;3.10;;;;;;;;;;4990754;28;20050;-63
2021/08/31 02:49:37;;;;;;;5.30;2.80;;;;;;;;;;4991627;28;20200;-62
2021/08/31 02:52:07;;;;;;;5.82;3.08;;;;;;;;;;4991055;28;20116;-63
2021/08/31 02:54:35;;;;;;;5.28;2.63;;;;;;;;;;4989834;28;20048;-63
2021/08/31 02:57:03;;;;;;;4.90;3.00;;;;;;;;;;4983646;28;20625;-63
2021/08/31 02:59:32;;;;;;;4.38;2.40;;;;;;;;;;4989093;28;20117;-63
2021/08/31 03:02:06;;;;;;;5.95;2.55;;;;;;;;;;4989181;28;20059;-63
2021/08/31 03:04:36;;;;;;;5.38;3.15;;;;;;;;;;4989836;28;20161;-63
2021/08/31 03:07:06;;;;;;;5.57;3.00;;;;;;;;;;4990468;28;20070;-63
2021/08/31 03:09:35;;;;;;;6.05;2.92;;;;;;;;;;4990262;28;20038;-64
2021/08/31 03:12:04;;;;;;;6.82;3.15;;;;;;;;;;4990126;28;20597;-64
2021/08/31 03:14:32;;;;;;;5.95;3.72;;;;;;;;;;4991119;28;20125;-64
2021/08/31 03:17:00;;;;;;;5.35;2.95;;;;;;;;;;4991753;28;20149;-63
2021/08/31 03:19:29;;;;;;;4.15;2.42;;;;;;;;;;4990385;28;20046;-64
2021/08/31 03:21:58;;;;;;;4.85;2.78;;;;;;;;;;4990964;28;20409;-63
2021/08/31 03:24:28;;;;;;;5.97;2.80;;;;;;;;;;4991107;28;20050;-63
2021/08/31 03:27:16;;;;;;;4.43;2.70;;;;;;;;;;937074;28;10003109;-63
2021/08/31 03:29:44;;;;;;;6.70;3.30;;;;;;;;;;4991199;28;20723;-63
2021/08/31 03:32:12;;;;;;;5.30;2.85;;;;;;;;;;4989249;28;20046;-64
2021/08/31 03:34:41;;;;;;;6.00;2.70;;;;;;;;;;4990669;28;20046;-63
2021/08/31 03:37:09;;;;;;;6.78;2.90;;;;;;;;;;4991704;28;20149;-63
2021/08/31 03:39:38;;;;;;;4.95;2.70;;;;;;;;;;4991003;28;20047;-63
2021/08/31 03:42:07;;;;;;;5.47;2.67;;;;;;;;;;4989763;28;20046;-63
2021/08/31 03:44:35;;;;;;;5.55;3.25;;;;;;;;;;4990100;28;20068;-63
2021/08/31 03:47:03;;;;;;;5.82;2.97;;;;;;;;;;4989361;28;20064;-63
2021/08/31 03:49:32;;;;;;;4.93;2.63;;;;;;;;;;4988971;28;20061;-63
2021/08/31 03:52:00;;;;;;;7.28;2.97;;;;;;;;;;4988154;28;20141;-63
2021/08/31 03:54:29;;;;;;;5.93;3.40;;;;;;;;;;4987673;28;20056;-63
2021/08/31 03:56:58;;;;;;;7.65;2.90;;;;;;;;;;4987581;28;20145;-63
2021/08/31 03:59:26;;;;;;;5.05;2.80;;;;;;;;;;4989922;28;20065;-63
2021/08/31 04:01:55;;;;;;;5.18;3.05;;;;;;;;;;4985145;28;20129;-63
2021/08/31 04:04:23;;;;;;;5.60;3.00;;;;;;;;;;4990142;28;20050;-63
2021/08/31 04:06:51;;;;;;;6.75;3.00;;;;;;;;;;4989562;28;20137;-64
2021/08/31 04:09:19;;;;;;;6.90;3.03;;;;;;;;;;4981667;28;20101;-63
2021/08/31 04:11:48;;;;;;;6.65;3.28;;;;;;;;;;4991098;28;20125;-63
2021/08/31 04:14:17;;;;;;;5.10;2.95;;;;;;;;;;4988977;28;20803;-64
2021/08/31 04:16:46;;;;;;;4.75;2.88;;;;;;;;;;4994817;28;20064;-63
2021/08/31 04:19:14;;;;;;;5.00;2.83;;;;;;;;;;4994099;28;20065;-64
2021/08/31 04:21:42;;;;;;;5.60;3.10;;;;;;;;;;4994963;28;20435;-63
2021/08/31 04:24:10;;;;;;;7.32;3.33;;;;;;;;;;4992985;28;20113;-64
2021/08/31 04:26:38;;;;;;;6.70;3.20;;;;;;;;;;4995018;28;20053;-63
2021/08/31 04:29:07;;;;;;;5.70;2.70;;;;;;;;;;4992689;28;20386;-63
2021/08/31 04:31:36;;;;;;;6.15;3.33;;;;;;;;;;4994317;28;20042;-63
2021/08/31 04:34:05;;;;;;;6.85;3.65;;;;;;;;;;4992747;28;20413;-63
2021/08/31 04:36:33;;;;;;;6.72;3.80;;;;;;;;;;4993987;28;20503;-63
2021/08/31 04:39:01;;;;;;;9.00;4.30;;;;;;;;;;4991934;28;20069;-63
2021/08/31 04:41:29;;;;;;;5.07;3.13;;;;;;;;;;4993497;28;20135;-64
2021/08/31 04:43:57;;;;;;;9.38;3.78;;;;;;;;;;4992962;28;20065;-63
2021/08/31 04:46:26;;;;;;;5.82;3.13;;;;;;;;;;4993952;28;20050;-63
2021/08/31 04:48:55;;;;;;;7.05;3.75;;;;;;;;;;4993084;28;20078;-64
2021/08/31 04:51:23;;;;;;;6.63;3.85;;;;;;;;;;4993299;28;20050;-64
2021/08/31 04:53:52;;;;;;;8.07;4.07;;;;;;;;;;4993522;28;20402;-63
2021/08/31 04:56:20;;;;;;;8.13;4.00;;;;;;;;;;4990791;28;20133;-63
2021/08/31 04:58:48;;;;;;;7.63;4.05;;;;;;;;;;4973518;28;20556;-63
2021/08/31 05:01:16;;;;;;;8.45;4.40;;;;;;;;;;4986787;28;20133;-64
2021/08/31 05:03:46;;;;;;;8.30;4.55;;;;;;;;;;4988060;28;20405;-64
2021/08/31 05:06:16;;;;;;;7.20;4.10;;;;;;;;;;4990788;28;20070;-63
2021/08/31 05:08:44;;;;;;;7.00;4.25;;;;;;;;;;4987160;28;20691;-65
2021/08/31 05:11:12;;;;;;;7.60;4.03;;;;;;;;;;4972679;28;20057;-65
2021/08/31 05:13:41;;;;;;;7.03;3.20;;;;;;;;;;4984861;28;20054;-64
2021/08/31 05:16:10;;;;;;;8.45;3.33;;;;;;;;;;4988132;28;20413;-65
2021/08/31 05:18:38;;;;;;;10.00;4.25;;;;;;;;;;4985681;28;20054;-65
2021/08/31 05:21:06;;;;;;;7.05;4.25;;;;;;;;;;4974200;28;20055;-64
2021/08/31 05:23:36;;;;;;;7.97;4.28;;;;;;;;;;4979787;28;20487;-65
2021/08/31 05:26:04;;;;;;;8.27;3.90;;;;;;;;;;4981886;28;20046;-66
2021/08/31 05:28:32;;;;;;;7.55;3.97;;;;;;;;;;4980357;28;20216;-65
2021/08/31 05:31:01;;;;;;;8.10;4.47;;;;;;;;;;4980760;28;20054;-64
2021/08/31 05:33:29;;;;;;;8.65;4.32;;;;;;;;;;4979706;28;20045;-64
2021/08/31 05:35:57;;;;;;;8.98;4.57;;;;;;;;;;4977257;28;20525;-65
2021/08/31 05:38:26;;;;;;;8.98;4.50;;;;;;;;;;4986591;28;20153;-64
2021/08/31 05:40:55;;;;;;;9.73;4.82;;;;;;;;;;4983102;28;20531;-64
2021/08/31 05:43:24;;;;;;;9.45;5.13;;;;;;;;;;4975707;28;20064;-64
2021/08/31 05:45:52;;;;;;;9.43;4.18;;;;;;;;;;4979045;28;20074;-64
2021/08/31 05:48:20;;;;;;;8.52;4.78;;;;;;;;;;4982644;28;20557;-65
2021/08/31 05:50:49;;;;;;;11.18;5.60;;;;;;;;;;4985693;28;20058;-66
2021/08/31 05:53:17;;;;;;;10.40;5.13;;;;;;;;;;4985307;28;20471;-64
2021/08/31 05:55:45;;;;;;;9.40;5.05;;;;;;;;;;4981972;28;20562;-64
2021/08/31 05:58:15;;;;;;;10.85;5.40;;;;;;;;;;4978508;28;20466;-65
2021/08/31 06:00:44;;;;;;;13.93;5.57;;;;;;;;;;4985554;28;20042;-65
2021/08/31 06:03:12;;;;;;;11.15;5.13;;;;;;;;;;4986404;28;20054;-65
2021/08/31 06:05:41;;;;;;;8.80;4.57;;;;;;;;;;4981605;28;20134;-64
2021/08/31 06:08:09;;;;;;;9.90;5.07;;;;;;;;;;4975491;28;20112;-65
2021/08/31 06:10:37;;;;;;;9.75;5.65;;;;;;;;;;4981331;28;20573;-64
2021/08/31 06:13:06;;;;;;;7.80;4.45;;;;;;;;;;4985971;28;20097;-64
2021/08/31 06:15:35;;;;;;;13.52;5.03;;;;;;;;;;4980826;28;20473;-65
2021/08/31 06:18:04;;;;;;;9.65;4.72;;;;;;;;;;4978658;28;20105;-65
2021/08/31 06:20:32;;;;;;;9.52;4.85;;;;;;;;;;4977947;28;20102;-64
2021/08/31 06:23:01;;;;;;;8.85;4.43;;;;;;;;;;4976898;28;20089;-64
2021/08/31 06:25:29;;;;;;;13.65;4.55;;;;;;;;;;4973126;28;20465;-67
2021/08/31 06:27:57;;;;;;;8.93;4.68;;;;;;;;;;4980085;28;20084;-64
2021/08/31 06:30:26;;;;;;;9.63;5.00;;;;;;;;;;4983855;28;20046;-66
2021/08/31 06:32:56;;;;;;;9.68;5.35;;;;;;;;;;4978810;28;20130;-65
2021/08/31 06:35:24;;;;;;;9.95;5.10;;;;;;;;;;4983860;28;20166;-67
2021/08/31 06:37:52;;;;;;;7.82;4.38;;;;;;;;;;4985851;28;20054;-65
2021/08/31 06:40:21;;;;;;;8.50;4.97;;;;;;;;;;4986668;28;20133;-65
2021/08/31 06:42:49;;;;;;;10.07;5.22;;;;;;;;;;4978085;28;20053;-64
2021/08/31 06:45:17;;;;;;;9.50;4.63;;;;;;;;;;4973749;28;20050;-64
2021/08/31 06:47:46;;;;;;;10.00;5.63;;;;;;;;;;4977515;28;20128;-64
2021/08/31 06:50:16;;;;;;;9.27;4.65;;;;;;;;;;4976821;28;20050;-66
2021/08/31 06:52:46;;;;;;;10.25;5.30;;;;;;;;;;4984291;28;20038;-64
2021/08/31 06:55:15;;;;;;;8.77;5.15;;;;;;;;;;4983324;28;20507;-65
2021/08/31 06:57:43;;;;;;;10.65;5.60;;;;;;;;;;4981797;28;20050;-64
2021/08/31 07:00:12;;;;;;;10.02;5.03;;;;;;;;;;4974515;28;20482;-62
2021/08/31 07:02:41;;;;;;;9.35;4.80;;;;;;;;;;4983601;28;20180;-63
2021/08/31 07:05:10;;;;;;;8.63;4.70;;;;;;;;;;4983649;28;20105;-63
2021/08/31 07:07:41;;;;;;;12.43;5.72;;;;;;;;;;4984886;28;20101;-64
2021/08/31 07:10:10;;;;;;;10.75;4.95;;;;;;;;;;4980060;28;20065;-66
2021/08/31 07:12:39;;;;;;;14.50;5.75;;;;;;;;;;4979927;28;20101;-64
2021/08/31 07:15:09;;;;;;;11.45;5.22;;;;;;;;;;4984523;28;20513;-66
2021/08/31 07:17:38;;;;;;;9.55;4.90;;;;;;;;;;4983348;28;20050;-64
2021/08/31 07:20:07;;;;;;;10.30;5.03;;;;;;;;;;4980246;28;20515;-63
2021/08/31 07:22:36;;;;;;;7.40;4.10;;;;;;;;;;4979942;28;20046;-62
2021/08/31 07:25:07;;;;;;;8.25;4.43;;;;;;;;;;4976712;28;20562;-62
2021/08/31 07:27:35;;;;;;;9.43;3.75;;;;;;;;;;4972822;28;20078;-63
2021/08/31 07:30:04;;;;;;;7.18;4.07;;;;;;;;;;4969820;28;20050;-65
2021/08/31 07:32:33;;;;;;;6.82;3.65;;;;;;;;;;4981380;28;20145;-64
2021/08/31 07:35:02;;;;;;;6.43;3.90;;;;;;;;;;4967706;28;20043;-63
2021/08/31 07:37:30;;;;;;;9.70;4.47;;;;;;;;;;4984201;28;20471;-63
2021/08/31 07:39:59;;;;;;;8.90;3.50;;;;;;;;;;4982570;28;20049;-61
2021/08/31 07:42:29;;;;;;;7.97;3.80;;;;;;;;;;4981599;28;20133;-60
2021/08/31 07:45:00;;;;;;;6.75;3.80;;;;;;;;;;4975087;28;20042;-60
2021/08/31 07:47:29;;;;;;;8.95;3.80;;;;;;;;;;4978558;28;20449;-60
2021/08/31 07:50:02;;;;;;;7.53;3.70;;;;;;;;;;4980014;28;20508;-60
2021/08/31 07:52:31;;;;;;;5.28;3.20;;;;;;;;;;4982756;28;20145;-60
2021/08/31 07:54:59;;;;;;;6.70;3.40;;;;;;;;;;4980347;28;20451;-60
2021/08/31 07:57:29;;;;;;;6.85;3.60;;;;;;;;;;4978279;28;20439;-61
2021/08/31 07:59:58;;;;;;;6.35;3.65;;;;;;;;;;4984720;28;20145;-60
2021/08/31 08:02:26;;;;;;;7.85;4.10;;;;;;;;;;4976484;28;20161;-60
2021/08/31 08:04:59;;;;;;;7.30;4.45;;;;;;;;;;4992891;28;20105;-61
2021/08/31 08:07:27;;;;;;;9.63;4.10;;;;;;;;;;4990590;28;20054;-61
2021/08/31 08:09:56;;;;;;;7.35;4.63;;;;;;;;;;4981606;28;20053;-61
2021/08/31 08:12:25;;;;;;;7.93;4.60;;;;;;;;;;4982847;28;20506;-61
2021/08/31 08:14:57;;;;;;;7.95;4.53;;;;;;;;;;4988736;28;20042;-61
2021/08/31 08:17:26;;;;;;;7.80;4.15;;;;;;;;;;4979956;28;20050;-61
2021/08/31 08:19:54;;;;;;;8.35;4.70;;;;;;;;;;4988103;28;20086;-61
2021/08/31 08:22:23;;;;;;;13.65;4.57;;;;;;;;;;4977563;28;20124;-62
2021/08/31 08:24:51;;;;;;;9.68;4.45;;;;;;;;;;4984042;28;20154;-61
2021/08/31 08:27:20;;;;;;;12.18;4.80;;;;;;;;;;4973127;28;20058;-61
2021/08/31 08:29:48;;;;;;;11.65;4.97;;;;;;;;;;4989362;28;20056;-62
2021/08/31 08:32:18;;;;;;;8.25;5.20;;;;;;;;;;4982023;28;20414;-62
2021/08/31 08:34:47;;;;;;;8.70;4.43;;;;;;;;;;4988873;28;20042;-62
2021/08/31 08:37:16;;;;;;;13.40;4.60;;;;;;;;;;4987952;28;20055;-62
2021/08/31 08:39:44;;;;;;;9.07;4.90;;;;;;;;;;4987730;28;20057;-62
2021/08/31 08:42:13;;;;;;;9.02;4.70;;;;;;;;;;4987365;28;20078;-62
2021/08/31 08:44:42;;;;;;;6.90;4.15;;;;;;;;;;4981061;28;20054;-61
2021/08/31 08:47:11;;;;;;;10.07;4.82;;;;;;;;;;4988102;28;20546;-62
2021/08/31 08:49:43;;;;;;;8.27;4.50;;;;;;;;;;4986779;28;20053;-62
2021/08/31 08:52:12;;;;;;;10.07;5.20;;;;;;;;;;4986193;28;20050;-62
2021/08/31 08:54:41;;;;;;;9.98;4.95;;;;;;;;;;4986564;28;20498;-61
2021/08/31 08:57:10;;;;;;;9.93;4.88;;;;;;;;;;4977665;28;20124;-61
2021/08/31 08:59:41;;;;;;;8.02;5.25;;;;;;;;;;4981266;28;20726;-62
2021/08/31 09:02:13;;;;;;;8.88;5.15;;;;;;;;;;4989776;28;20094;-61
2021/08/31 09:04:47;;;;;;;8.55;4.70;;;;;;;;;;4989544;28;20048;-61
2021/08/31 09:07:20;;;;;;;9.65;4.53;;;;;;;;;;4991854;28;20465;-61
2021/08/31 09:09:49;;;;;;;8.80;5.05;;;;;;;;;;4990306;28;20065;-61
2021/08/31 09:12:32;;;;;;;9.02;4.93;;;;;;;;;;4988791;28;20816;-62
2021/08/31 09:15:15;;;;;;;7.82;4.75;;;;;;;;;;4989949;28;20065;-61
2021/08/31 09:18:09;;;;;;;10.65;4.65;;;;;;;;;;4986887;28;20046;-61
2021/08/31 09:20:40;;;;;;;11.27;4.43;;;;;;;;;;4980779;28;20543;-61
2021/08/31 09:23:10;;;;;;;7.25;4.03;;;;;;;;;;4992145;28;20061;-61
2021/08/31 09:25:40;;;;;;;7.45;4.82;;;;;;;;;;4984693;28;20046;-61
2021/08/31 09:28:20;;;;;;;9.40;4.88;;;;;;;;;;4989072;28;20111;-61
2021/08/31 09:30:57;;;;;;;8.48;4.93;;;;;;;;;;4988776;28;20081;-61
2021/08/31 09:33:26;;;;;;;8.43;4.30;;;;;;;;;;4987495;28;20046;-61
2021/08/31 09:36:04;;;;;;;8.43;4.43;;;;;;;;;;4990929;28;20050;-61
2021/08/31 09:38:48;;;;;;;9.05;4.22;;;;;;;;;;4991849;28;20280;-61
2021/08/31 09:41:31;;;;;;;7.80;4.05;;;;;;;;;;4990200;28;20058;-61
2021/08/31 09:44:00;;;;;;;8.85;4.18;;;;;;;;;;4988466;28;20104;-61
2021/08/31 09:46:43;;;;;;;7.70;4.07;;;;;;;;;;4985431;28;20097;-61
2021/08/31 09:49:18;;;;;;;6.95;4.20;;;;;;;;;;4986977;28;20064;-61
2021/08/31 09:51:47;;;;;;;;;;;;;;;;;;4991879;28;20057;-61
2021/08/31 09:54:23;;;;;;;6.90;4.28;;;;;;;;;;4988257;28;20287;-61
2021/08/31 09:56:52;;;;;;;5.65;3.70;;;;;;;;;;4990990;28;20053;-61
2021/08/31 09:59:34;;;;;;;7.68;4.88;;;;;;;;;;4986820;28;20074;-61
2021/08/31 10:02:03;;;;;;;7.53;3.70;;;;;;;;;;4991820;28;20395;-61
2021/08/31 10:04:31;;;;;;;9.02;4.38;;;;;;;;;;4988683;28;20375;-61
2021/08/31 10:07:00;;;;;;;8.85;4.55;;;;;;;;;;4986108;28;20039;-61
2021/08/31 10:09:33;;;;;;;5.20;3.58;;;;;;;;;;4989424;28;20050;-61
2021/08/31 10:12:02;;;;;;;6.43;4.05;;;;;;;;;;4989204;28;20472;-61
2021/08/31 10:14:30;;;;;;;6.85;3.58;;;;;;;;;;4980711;28;20048;-61
2021/08/31 10:16:59;;;;;;;5.78;3.53;;;;;;;;;;4989823;28;20050;-61
2021/08/31 10:19:28;;;;;;;5.28;3.25;;;;;;;;;;4990078;28;20050;-61
2021/08/31 10:21:56;;;;;;;4.60;3.00;;;;;;;;;;4989349;28;20414;-61
2021/08/31 10:24:25;;;;;;;5.53;3.33;;;;;;;;;;4988814;28;20073;-61
2021/08/31 10:26:54;;;;;;;5.57;3.55;;;;;;;;;;4987304;28;20466;-61
2021/08/31 10:29:28;;;;;;;5.50;3.13;;;;;;;;;;4989363;28;20100;-61
2021/08/31 10:31:57;;;;;;;5.07;2.97;;;;;;;;;;4988330;28;20121;-61
2021/08/31 10:34:41;;;;;;;8.50;3.40;;;;;;;;;;4988942;28;20406;-61
2021/08/31 10:37:10;;;;;;;5.13;3.30;;;;;;;;;;4985287;28;20112;-61
2021/08/31 10:39:43;;;;;;;4.43;3.00;;;;;;;;;;4970394;28;20477;-61
2021/08/31 10:42:13;;;;;;;7.38;3.00;;;;;;;;;;4990284;28;20054;-61
2021/08/31 10:44:43;;;;;;;8.50;3.90;;;;;;;;;;4989115;28;20128;-61
2021/08/31 10:47:13;;;;;;;6.00;3.33;;;;;;;;;;4989909;28;20133;-61
2021/08/31 10:50:14;;;;;;;6.50;3.60;;;;;;;;;;4981180;28;20078;-62
2021/08/31 10:52:44;;;;;;;6.05;3.30;;;;;;;;;;4983118;28;20108;-62
2021/08/31 10:55:40;;;;;;;7.57;4.00;;;;;;;;;;4988035;28;20459;-62
2021/08/31 10:58:14;;;;;;;6.75;3.90;;;;;;;;;;4929007;28;20554;-65
2021/08/31 11:00:53;;;;;;;7.05;3.67;;;;;;;;;;4987857;28;20582;-65
2021/08/31 11:03:31;;;;;;;7.25;3.90;;;;;;;;;;4986639;28;20063;-64
2021/08/31 11:06:20;;;;;;;8.98;4.05;;;;;;;;;;4980909;28;20439;-65
2021/08/31 11:09:07;;;;;;;6.93;3.85;;;;;;;;;;4981660;28;20050;-65
2021/08/31 11:11:35;;;;;;;5.47;3.03;;;;;;;;;;4971332;28;20050;-65
2021/08/31 11:14:05;;;;;;;6.03;3.45;;;;;;;;;;4989208;28;20058;-64
2021/08/31 11:16:36;;;;;;;5.13;3.30;;;;;;;;;;4989521;28;20448;-64
2021/08/31 11:19:05;;;;;;;5.22;3.28;;;;;;;;;;4990070;28;20150;-63
2021/08/31 11:21:47;;;;;;;7.97;3.63;;;;;;;;;;4986218;28;20054;-64
2021/08/31 11:24:15;;;;;;;6.75;3.60;;;;;;;;;;4988035;28;20521;-65
2021/08/31 11:26:43;;;;;;;6.45;3.42;;;;;;;;;;4989167;28;20515;-63
2021/08/31 11:29:14;;;;;;;5.45;3.20;;;;;;;;;;4988720;28;20082;-65
2021/08/31 11:31:43;;;;;;;6.70;3.40;;;;;;;;;;4982508;28;20046;-63
2021/08/31 11:34:12;;;;;;;5.63;3.17;;;;;;;;;;4984529;28;20054;-64
2021/08/31 11:36:42;;;;;;;6.22;3.35;;;;;;;;;;4988625;28;20101;-63
2021/08/31 11:39:12;;;;;;;6.53;3.25;;;;;;;;;;4989440;28;20057;-64
2021/08/31 11:41:41;;;;;;;5.35;3.03;;;;;;;;;;4989110;28;20050;-64
2021/08/31 11:44:11;;;;;;;5.03;3.03;;;;;;;;;;4988662;28;20058;-64
2021/08/31 11:46:43;;;;;;;6.57;3.40;;;;;;;;;;4989291;28;20166;-63
2021/08/31 11:49:17;;;;;;;4.68;2.90;;;;;;;;;;4986149;28;20053;-64
2021/08/31 11:51:59;;;;;;;5.60;2.92;;;;;;;;;;4988882;28;20526;-63
2021/08/31 11:54:29;;;;;;;5.55;3.20;;;;;;;;;;4988134;28;20121;-63
2021/08/31 11:56:59;;;;;;;8.73;3.10;;;;;;;;;;4982381;28;20158;-63
2021/08/31 11:59:42;;;;;;;7.72;3.25;;;;;;;;;;4988940;28;20062;-64
2021/08/31 12:02:16;;;;;;;4.43;2.92;;;;;;;;;;4980818;28;20058;-63
2021/08/31 12:04:46;;;;;;;8.13;3.95;;;;;;;;;;4982216;28;20042;-63
2021/08/31 12:07:16;;;;;;;5.30;3.25;;;;;;;;;;4984287;28;20050;-62
2021/08/31 12:09:46;;;;;;;7.03;4.03;;;;;;;;;;4988170;28;20053;-64
2021/08/31 12:12:14;;;;;;;7.28;3.83;;;;;;;;;;4981583;28;20100;-62
2021/08/31 12:14:47;;;;;;;7.88;4.03;;;;;;;;;;4988277;28;20038;-63
2021/08/31 12:17:28;;;;;;;7.60;4.70;;;;;;;;;;4988539;28;20046;-63
2021/08/31 12:20:03;;;;;;;7.90;3.88;;;;;;;;;;4988043;28;20398;-62
2021/08/31 12:22:33;;;;;;;9.07;4.03;;;;;;;;;;4988668;28;20545;-62
2021/08/31 12:25:02;;;;;;;8.15;4.00;;;;;;;;;;4995687;28;20092;-64
2021/08/31 12:27:38;;;;;;;6.50;3.92;;;;;;;;;;4985860;28;20042;-63
2021/08/31 12:30:07;;;;;;;6.78;3.03;;;;;;;;;;4986365;28;20089;-65
2021/08/31 12:32:37;;;;;;;5.72;3.33;;;;;;;;;;4985609;28;20561;-65
2021/08/31 12:35:24;;;;;;;5.32;3.30;;;;;;;;;;4987163;28;20415;-64
2021/08/31 12:38:13;;;;;;;5.03;3.03;;;;;;;;;;4988762;28;20046;-64
2021/08/31 12:40:58;;;;;;;7.50;3.35;;;;;;;;;;4987112;28;20169;-65
2021/08/31 12:43:28;;;;;;;5.22;3.30;;;;;;;;;;4988656;28;20129;-65
2021/08/31 12:45:57;;;;;;;7.38;3.53;;;;;;;;;;4989002;28;20057;-65
2021/08/31 12:48:38;;;;;;;6.18;3.65;;;;;;;;;;4989227;28;20056;-65
2021/08/31 12:51:07;;;;;;;5.80;3.15;;;;;;;;;;4990326;28;20050;-65
2021/08/31 12:53:36;;;;;;;26.60;18.65;;;;;;;;;;4992073;28;20227;-65
2021/08/31 12:56:06;;;;;;;18.73;12.32;;;;;;;;;;4992129;28;20236;-66
2021/08/31 12:58:35;;;;;;;22.75;14.52;;;;;;;;;;4989153;28;20050;-65
2021/08/31 13:01:12;;;;;;;8.32;4.88;;;;;;;;;;4992787;28;20057;-65
2021/08/31 13:03:44;;;;;;;11.52;7.30;;;;;;;;;;4989329;28;20046;-66
2021/08/31 13:06:36;;;;;;;5.28;3.47;;;;;;;;;;4985866;28;20072;-65
2021/08/31 13:09:06;;;;;;;8.20;4.53;;;;;;;;;;4988354;28;20046;-65
2021/08/31 13:11:35;;;;;;;8.35;4.70;;;;;;;;;;4988166;28;20382;-65
2021/08/31 13:14:10;;;;;;;6.10;3.63;;;;;;;;;;4981009;28;20042;-65
2021/08/31 13:16:40;;;;;;;6.90;3.58;;;;;;;;;;4988455;28;20474;-65
2021/08/31 13:19:10;;;;;;;5.93;3.67;;;;;;;;;;4987716;28;20141;-65
2021/08/31 13:21:39;;;;;;;8.43;4.20;;;;;;;;;;4986683;28;20053;-65
2021/08/31 13:24:08;;;;;;;10.65;5.32;;;;;;;;;;4986114;28;20548;-65
2021/08/31 13:26:37;;;;;;;10.82;6.22;;;;;;;;;;4987902;28;20505;-65
2021/08/31 13:29:06;;;;;;;7.60;4.90;;;;;;;;;;4989591;28;20069;-66
2021/08/31 13:31:35;;;;;;;6.15;4.03;;;;;;;;;;4987505;28;20474;-65
2021/08/31 13:34:04;;;;;;;5.75;3.80;;;;;;;;;;4988446;28;20046;-65
2021/08/31 13:36:34;;;;;;;5.40;3.17;;;;;;;;;;4984506;28;20050;-65
2021/08/31 13:39:03;;;;;;;6.57;3.83;;;;;;;;;;4987718;28;20548;-64
2021/08/31 13:41:34;;;;;;;6.45;4.15;;;;;;;;;;4987270;28;20062;-65
2021/08/31 13:44:03;;;;;;;4.45;2.53;;;;;;;;;;4986991;28;20125;-64
2021/08/31 13:46:32;;;;;;;5.95;3.35;;;;;;;;;;4987858;28;20058;-64
2021/08/31 13:49:01;;;;;;;6.65;3.83;;;;;;;;;;4987346;28;20054;-64
2021/08/31 13:51:30;;;;;;;5.07;2.97;;;;;;;;;;4984830;28;20864;-64
2021/08/31 13:54:01;;;;;;;5.55;3.30;;;;;;;;;;4986656;28;20348;-63
2021/08/31 13:56:30;;;;;;;5.47;3.13;;;;;;;;;;4984462;28;20051;-63
2021/08/31 13:58:58;;;;;;;5.40;3.15;;;;;;;;;;4984047;28;20061;-64
2021/08/31 14:01:27;;;;;;;5.78;3.80;;;;;;;;;;4985874;28;20518;-64
2021/08/31 14:03:56;;;;;;;5.47;3.25;;;;;;;;;;4986274;28;20076;-64
2021/08/31 14:06:25;;;;;;;4.25;2.63;;;;;;;;;;4983552;28;20085;-64
2021/08/31 14:08:54;;;;;;;4.22;3.03;;;;;;;;;;4978635;28;20046;-64
2021/08/31 14:11:24;;;;;;;5.60;3.10;;;;;;;;;;4986784;28;20053;-65
2021/08/31 14:13:53;;;;;;;3.83;2.38;;;;;;;;;;4986366;28;20168;-64
2021/08/31 14:16:22;;;;;;;7.53;3.55;;;;;;;;;;4988392;28;20434;-65
2021/08/31 14:18:52;;;;;;;6.00;3.38;;;;;;;;;;4987512;28;20046;-64
2021/08/31 14:21:21;;;;;;;5.78;2.83;;;;;;;;;;4985455;28;20049;-65
2021/08/31 14:23:50;;;;;;;5.30;3.42;;;;;;;;;;4985467;28;20046;-64
2021/08/31 14:26:20;;;;;;;5.50;3.10;;;;;;;;;;4986750;28;20133;-64
2021/08/31 14:28:50;;;;;;;4.20;2.92;;;;;;;;;;4987996;28;20529;-64
2021/08/31 14:31:19;;;;;;;7.30;4.35;;;;;;;;;;4985669;28;20614;-64
2021/08/31 14:33:48;;;;;;;6.00;3.00;;;;;;;;;;4997323;28;20580;-65
2021/08/31 14:36:16;;;;;;;6.93;3.42;;;;;;;;;;4984521;28;20141;-65
2021/08/31 14:38:45;;;;;;;5.43;2.95;;;;;;;;;;4990177;28;20372;-65
2021/08/31 14:41:14;;;;;;;5.68;3.17;;;;;;;;;;4984657;28;20545;-65
2021/08/31 14:43:43;;;;;;;6.70;3.17;;;;;;;;;;4991363;28;20093;-64
2021/08/31 14:46:14;;;;;;;5.00;3.33;;;;;;;;;;4999446;28;20053;-64
2021/08/31 14:48:42;;;;;;;3.83;2.38;;;;;;;;;;4988386;28;20050;-65
2021/08/31 14:51:11;;;;;;;5.22;3.72;;;;;;;;;;4983696;28;20112;-64
2021/08/31 14:53:41;;;;;;;6.05;3.30;;;;;;;;;;4998069;28;20050;-64
2021/08/31 14:56:10;;;;;;;5.50;3.35;;;;;;;;;;4981839;28;20051;-65
2021/08/31 14:58:39;;;;;;;9.05;4.05;;;;;;;;;;4988078;28;20558;-64
2021/08/31 15:01:08;;;;;;;3.63;2.80;;;;;;;;;;4986780;28;20136;-65